Time;durP1;ratioP1;P1;durP2;ratioP2;P2;SDS_P1;SDS_P2;PMS_P1;PMS_P2;Temp;Humidity;BMP_temperature;BMP_pressure;BME280_temperature;BME280_humidity;BME280_pressure;Samples;Min_cycle;Max_cycle;Signal;HPM_P1;HPM_P2
2023/02/22 00:01:21;;;;;;;22.02;11.00;;;27.80;73.90;;;;;;5085152;28;20040;-52
2023/02/22 00:03:50;;;;;;;14.82;10.32;;;27.90;74.00;;;;;;5084896;28;20033;-59
2023/02/22 00:06:19;;;;;;;20.15;10.90;;;27.80;74.00;;;;;;5084989;28;20317;-52
2023/02/22 00:08:48;;;;;;;18.83;10.85;;;27.80;74.10;;;;;;5084854;28;20024;-52
2023/02/22 00:11:15;;;;;;;19.00;11.27;;;27.80;74.10;;;;;;5084879;28;20036;-51
2023/02/22 00:13:45;;;;;;;18.48;11.07;;;27.80;73.90;;;;;;5085038;28;20103;-54
2023/02/22 00:16:17;;;;;;;25.08;11.57;;;27.80;73.90;;;;;;5085186;28;20040;-56
2023/02/22 00:18:44;;;;;;;19.35;12.32;;;27.80;73.90;;;;;;5067009;28;20095;-56
2023/02/22 00:21:12;;;;;;;21.20;12.07;;;27.80;73.90;;;;;;5084813;28;20040;-52
2023/02/22 00:23:45;;;;;;;21.75;13.10;;;27.80;74.00;;;;;;5084804;28;20300;-57
2023/02/22 00:26:19;;;;;;;17.65;12.77;;;27.80;74.00;;;;;;5084404;28;20044;-52
2023/02/22 00:28:48;;;;;;;17.02;12.70;;;27.80;74.10;;;;;;5084842;28;20028;-52
2023/02/22 00:31:17;;;;;;;21.77;12.95;;;27.80;74.00;;;;;;5084542;28;20043;-53
2023/02/22 00:33:44;;;;;;;20.83;13.07;;;27.80;74.20;;;;;;5084736;28;20012;-53
2023/02/22 00:36:12;;;;;;;19.60;13.68;;;27.80;74.00;;;;;;5084546;28;20021;-55
2023/02/22 00:38:41;;;;;;;19.95;15.35;;;27.70;74.10;;;;;;5066698;28;20036;-55
2023/02/22 00:41:08;;;;;;;21.88;14.70;;;27.70;74.20;;;;;;5084528;28;20042;-51
2023/02/22 00:43:34;;;;;;;21.48;13.50;;;27.70;74.10;;;;;;5084620;28;20256;-55
2023/02/22 00:46:01;;;;;;;21.70;13.77;;;27.70;74.20;;;;;;5084461;28;20044;-55
2023/02/22 00:48:28;;;;;;;19.17;14.43;;;27.70;74.20;;;;;;5084495;28;20031;-52
2023/02/22 00:50:55;;;;;;;18.48;13.98;;;27.70;74.40;;;;;;5084069;28;20028;-53
2023/02/22 00:53:24;;;;;;;22.35;14.32;;;27.70;74.50;;;;;;5084435;28;20209;-56
2023/02/22 00:55:51;;;;;;;20.38;13.52;;;27.70;74.40;;;;;;5084732;28;20035;-53
2023/02/22 00:58:18;;;;;;;18.08;14.00;;;27.70;74.40;;;;;;5084342;28;20200;-57
2023/02/22 01:00:45;;;;;;;20.15;14.07;;;27.70;74.50;;;;;;5084009;28;20032;-56
2023/02/22 01:03:14;;;;;;;19.52;14.80;;;27.70;74.50;;;;;;5084033;28;20043;-57
2023/02/22 01:05:41;;;;;;;22.65;14.20;;;27.70;74.60;;;;;;5083763;28;20255;-54
2023/02/22 01:08:10;;;;;;;19.05;14.00;;;27.60;74.50;;;;;;5084047;28;20024;-50
2023/02/22 01:10:38;;;;;;;15.48;13.55;;;27.60;74.70;;;;;;5083956;28;20043;-53
2023/02/22 01:13:10;;;;;;;18.92;13.13;;;27.60;74.70;;;;;;5075405;28;20058;-55
2023/02/22 01:15:38;;;;;;;;;;;27.60;74.80;;;;;;5084255;28;20024;-54
2023/02/22 01:18:06;;;;;;;18.08;12.93;;;27.60;74.90;;;;;;5084135;28;19904;-56
2023/02/22 01:20:35;;;;;;;21.75;14.65;;;27.60;75.00;;;;;;5083890;28;20035;-55
2023/02/22 01:23:05;;;;;;;15.35;13.32;;;27.60;75.00;;;;;;5083941;28;20028;-51
2023/02/22 01:25:33;;;;;;;18.65;13.88;;;27.60;75.00;;;;;;5083725;28;20079;-52
2023/02/22 01:28:01;;;;;;;17.10;14.07;;;27.50;75.00;;;;;;5083701;28;20300;-53
2023/02/22 01:30:31;;;;;;;17.23;14.13;;;27.60;75.20;;;;;;5083837;28;20032;-57
2023/02/22 01:32:58;;;;;;;17.42;14.23;;;27.60;75.10;;;;;;5083885;28;20040;-58
2023/02/22 01:35:31;;;;;;;19.23;13.93;;;27.50;75.10;;;;;;5083823;28;20040;-59
2023/02/22 01:37:58;;;;;;;21.35;13.98;;;27.60;75.20;;;;;;5084655;28;20021;-57
2023/02/22 01:40:29;;;;;;;20.65;15.02;;;27.60;75.30;;;;;;5087806;28;20043;-57
2023/02/22 01:42:59;;;;;;;25.67;15.00;;;27.50;75.30;;;;;;5087830;28;20044;-53
2023/02/22 01:45:31;;;;;;;22.33;15.57;;;27.50;75.40;;;;;;5088010;28;20336;-54
2023/02/22 01:48:24;;;;;;;33.83;18.10;;;27.50;75.60;;;;;;5087563;28;20025;-52
2023/02/22 01:51:25;;;;;;;26.70;17.35;;;27.50;75.60;;;;;;5087832;28;20224;-57
2023/02/22 01:53:55;;;;;;;26.73;17.55;;;27.50;75.60;;;;;;5084008;28;20028;-54
2023/02/22 01:56:24;;;;;;;27.42;17.52;;;27.50;75.70;;;;;;5087448;28;20217;-56
2023/02/22 01:58:57;;;;;;;25.35;17.90;;;27.40;75.80;;;;;;5070089;28;20258;-58
2023/02/22 02:01:25;;;;;;;25.52;19.27;;;27.50;76.00;;;;;;5087493;28;20040;-55
2023/02/22 02:03:57;;;;;;;26.58;20.23;;;27.40;76.00;;;;;;5087604;28;20048;-54
2023/02/22 02:06:24;;;;;;;24.30;20.63;;;27.40;75.90;;;;;;5087283;28;20058;-50
2023/02/22 02:09:20;;;;;;;31.00;21.85;;;27.40;76.20;;;;;;5087652;28;20020;-55
2023/02/22 02:11:47;;;;;;;28.95;23.05;;;27.40;76.40;;;;;;5086964;28;20032;-59
2023/02/22 02:14:17;;;;;;;52.40;24.92;;;27.40;76.40;;;;;;5080306;28;20051;-53
2023/02/22 02:16:47;;;;;;;41.03;24.02;;;27.40;76.80;;;;;;5077076;28;20029;-55
2023/02/22 02:19:37;;;;;;;35.95;21.70;;;27.40;76.40;;;;;;5075205;28;20027;-54
2023/02/22 02:22:27;;;;;;;37.25;22.95;;;27.50;76.40;;;;;;5069455;28;20139;-56
2023/02/22 02:25:18;;;;;;;33.25;22.05;;;27.50;76.30;;;;;;5070966;28;20020;-54
2023/02/22 02:28:09;;;;;;;34.58;21.83;;;27.60;76.40;;;;;;5076937;28;20095;-62
2023/02/22 02:31:13;;;;;;;26.90;22.63;;;27.60;76.30;;;;;;5084546;28;20028;-55
2023/02/22 02:33:56;;;;;;;26.80;21.00;;;27.60;76.30;;;;;;5069491;28;20050;-53
2023/02/22 02:36:28;;;;;;;28.88;20.00;;;27.60;76.00;;;;;;5086932;28;20051;-58
2023/02/22 02:39:04;;;;;;;25.27;20.90;;;27.60;76.20;;;;;;5086817;28;20078;-56
2023/02/22 02:41:46;;;;;;;25.90;20.15;;;27.70;76.00;;;;;;5084010;28;20025;-54
2023/02/22 02:44:21;;;;;;;23.52;19.98;;;27.60;75.90;;;;;;5076779;28;20039;-58
2023/02/22 02:47:14;;;;;;;20.67;18.25;;;27.70;76.00;;;;;;5077334;28;20033;-55
2023/02/22 02:49:55;;;;;;;22.90;18.17;;;27.60;76.00;;;;;;5074299;28;20362;-53
2023/02/22 02:52:25;;;;;;;22.27;17.92;;;27.60;76.00;;;;;;5082246;28;20024;-54
2023/02/22 02:54:53;;;;;;;23.17;17.60;;;27.60;76.00;;;;;;5086994;28;20043;-56
2023/02/22 02:57:20;;;;;;;21.77;17.30;;;27.60;75.90;;;;;;5086376;28;20063;-59
2023/02/22 02:59:47;;;;;;;21.48;17.08;;;27.60;76.00;;;;;;5087136;28;20035;-55
2023/02/22 03:02:48;;;;;;;18.77;16.98;;;27.60;76.00;;;;;;5086381;28;20055;-59
2023/02/22 03:05:32;;;;;;;22.98;17.25;;;27.60;76.00;;;;;;5085958;28;20036;-56
2023/02/22 03:08:47;;;;;;;22.67;18.05;;;27.60;76.00;;;;;;5086047;28;20198;-56
2023/02/22 03:11:27;;;;;;;19.67;17.55;;;27.60;76.00;;;;;;5043640;28;20050;-58
2023/02/22 03:14:22;;;;;;;19.70;16.83;;;27.60;76.10;;;;;;5086039;28;20119;-55
2023/02/22 03:16:57;;;;;;;21.95;16.30;;;27.60;76.20;;;;;;5086097;28;20070;-55
2023/02/22 03:20:10;;;;;;;20.67;16.73;;;27.60;76.30;;;;;;5085965;28;20024;-57
2023/02/22 03:22:46;;;;;;;21.00;15.95;;;27.60;76.10;;;;;;5065528;28;20050;-55
2023/02/22 03:25:39;;;;;;;16.98;15.18;;;27.50;75.90;;;;;;5085967;28;20017;-54
2023/02/22 03:28:16;;;;;;;16.30;14.60;;;27.50;75.80;;;;;;5075188;28;20059;-57
2023/02/22 03:31:03;;;;;;;15.93;14.32;;;27.50;75.70;;;;;;5067984;28;20031;-54
2023/02/22 03:33:36;;;;;;;16.08;14.35;;;27.60;75.90;;;;;;5086259;28;20024;-56
2023/02/22 03:36:09;;;;;;;15.80;14.10;;;27.50;75.60;;;;;;5085946;28;20025;-56
2023/02/22 03:38:39;;;;;;;15.40;13.77;;;27.50;75.50;;;;;;5068003;28;20316;-56
2023/02/22 03:41:08;;;;;;;15.10;13.63;;;27.50;75.60;;;;;;5068093;28;20276;-58
2023/02/22 03:43:53;;;;;;;14.85;13.38;;;27.50;75.60;;;;;;5086345;28;20032;-58
2023/02/22 03:46:21;;;;;;;13.95;12.65;;;27.50;75.50;;;;;;5067787;28;20044;-59
2023/02/22 03:49:13;;;;;;;15.70;14.20;;;27.50;75.50;;;;;;5085930;28;20024;-58
2023/02/22 03:51:40;;;;;;;15.98;14.32;;;27.50;75.50;;;;;;5085511;28;20325;-57
2023/02/22 03:54:08;;;;;;;15.20;13.80;;;27.50;75.70;;;;;;5085323;28;20032;-56
2023/02/22 03:56:46;;;;;;;15.65;14.05;;;27.40;75.60;;;;;;5085225;28;20370;-56
2023/02/22 03:59:13;;;;;;;15.25;13.52;;;27.40;75.60;;;;;;5085386;28;20043;-57
2023/02/22 04:01:40;;;;;;;14.77;13.40;;;27.50;75.60;;;;;;5084498;28;20028;-55
2023/02/22 04:04:08;;;;;;;16.58;14.60;;;27.40;75.60;;;;;;5085280;28;20402;-62
2023/02/22 04:06:34;;;;;;;18.60;14.63;;;27.50;75.60;;;;;;5085026;28;20028;-55
2023/02/22 04:09:01;;;;;;;15.63;13.80;;;27.50;75.70;;;;;;5084965;28;20024;-62
2023/02/22 04:11:28;;;;;;;15.75;14.15;;;27.40;75.60;;;;;;5085065;28;20031;-57
2023/02/22 04:13:57;;;;;;;15.48;14.07;;;27.50;75.80;;;;;;5085177;28;20051;-55
2023/02/22 04:16:26;;;;;;;16.52;14.68;;;27.50;75.80;;;;;;5085145;28;20048;-57
2023/02/22 04:18:53;;;;;;;15.23;13.73;;;27.40;75.90;;;;;;5067330;28;20032;-57
2023/02/22 04:21:19;;;;;;;17.25;14.60;;;27.40;76.00;;;;;;5084901;28;20193;-55
2023/02/22 04:23:46;;;;;;;16.50;14.45;;;27.40;76.10;;;;;;5085164;28;20241;-57
2023/02/22 04:26:13;;;;;;;17.23;15.48;;;27.40;76.10;;;;;;5084796;28;20028;-58
2023/02/22 04:28:39;;;;;;;16.73;15.20;;;27.40;75.90;;;;;;5082198;28;20331;-57
2023/02/22 04:31:06;;;;;;;20.35;18.15;;;27.40;75.90;;;;;;5084431;28;20060;-57
2023/02/22 04:33:33;;;;;;;19.23;17.42;;;27.40;75.80;;;;;;5085146;28;20233;-57
2023/02/22 04:35:59;;;;;;;17.92;16.13;;;27.40;75.80;;;;;;5084564;28;20043;-53
2023/02/22 04:38:27;;;;;;;17.02;15.35;;;27.40;75.70;;;;;;5084782;28;20032;-57
2023/02/22 04:40:54;;;;;;;18.15;16.30;;;27.40;75.90;;;;;;5084472;28;20024;-57
2023/02/22 04:43:22;;;;;;;18.02;15.43;;;27.40;75.80;;;;;;5084680;28;20090;-56
2023/02/22 04:45:48;;;;;;;16.63;15.02;;;27.40;75.80;;;;;;5084212;28;20220;-54
2023/02/22 04:48:15;;;;;;;15.32;13.73;;;27.40;75.90;;;;;;5084748;28;20024;-61
2023/02/22 04:50:41;;;;;;;16.33;14.48;;;27.40;75.90;;;;;;5084359;28;20040;-56
2023/02/22 04:53:08;;;;;;;16.50;14.80;;;27.40;75.80;;;;;;5084443;28;20201;-54
2023/02/22 04:55:35;;;;;;;16.70;14.90;;;27.40;75.80;;;;;;5084289;28;20197;-52
2023/02/22 04:58:01;;;;;;;15.75;14.25;;;27.40;75.90;;;;;;5084501;28;20020;-58
2023/02/22 05:00:28;;;;;;;15.88;14.18;;;27.40;76.00;;;;;;5084078;28;20036;-57
2023/02/22 05:02:54;;;;;;;15.15;13.65;;;27.40;76.00;;;;;;5084289;28;20317;-54
2023/02/22 05:05:22;;;;;;;15.18;13.73;;;27.30;76.00;;;;;;5084219;28;20189;-56
2023/02/22 05:07:49;;;;;;;15.07;13.68;;;27.30;75.90;;;;;;5084216;28;20035;-56
2023/02/22 05:10:16;;;;;;;15.43;13.82;;;27.30;76.10;;;;;;5084054;28;20025;-57
2023/02/22 05:12:43;;;;;;;15.55;14.15;;;27.30;76.20;;;;;;5083039;28;20040;-58
2023/02/22 05:15:14;;;;;;;15.45;13.98;;;27.30;76.20;;;;;;5083918;28;20040;-58
2023/02/22 05:17:41;;;;;;;15.53;14.00;;;27.30;76.30;;;;;;5084179;28;20020;-57
2023/02/22 05:20:15;;;;;;;16.50;14.93;;;27.30;76.50;;;;;;5084063;28;20271;-57
2023/02/22 05:22:42;;;;;;;16.00;14.18;;;27.30;77.20;;;;;;5083985;28;20062;-57
2023/02/22 05:25:10;;;;;;;16.27;14.77;;;27.30;76.60;;;;;;5084148;28;20092;-54
2023/02/22 05:27:36;;;;;;;17.55;15.85;;;27.30;76.80;;;;;;5084139;28;20249;-56
2023/02/22 05:30:07;;;;;;;16.23;14.73;;;27.30;76.90;;;;;;5084039;28;20091;-58
2023/02/22 05:32:35;;;;;;;16.92;15.25;;;27.30;77.20;;;;;;5084116;28;20041;-57
2023/02/22 05:35:01;;;;;;;18.35;14.73;;;27.20;77.20;;;;;;5084311;28;20020;-57
2023/02/22 05:37:28;;;;;;;17.75;15.38;;;27.30;77.30;;;;;;5076153;28;20033;-54
2023/02/22 05:39:54;;;;;;;15.38;13.95;;;27.30;77.20;;;;;;5083937;28;20024;-57
2023/02/22 05:42:22;;;;;;;15.25;13.70;;;27.20;77.10;;;;;;5084035;28;20036;-57
2023/02/22 05:44:48;;;;;;;15.23;13.70;;;27.20;76.90;;;;;;5083437;28;20216;-54
2023/02/22 05:47:15;;;;;;;15.02;13.57;;;27.30;77.00;;;;;;5083762;28;20048;-60
2023/02/22 05:49:41;;;;;;;15.98;14.32;;;27.30;76.80;;;;;;5081927;28;20044;-54
2023/02/22 05:52:08;;;;;;;15.35;13.88;;;27.30;76.80;;;;;;5077931;28;20017;-52
2023/02/22 05:54:35;;;;;;;15.88;14.38;;;27.20;76.70;;;;;;5064792;28;20044;-56
2023/02/22 05:57:01;;;;;;;15.77;14.18;;;27.20;76.80;;;;;;5083731;28;20033;-52
2023/02/22 05:59:29;;;;;;;16.13;14.52;;;27.20;76.70;;;;;;5083406;28;20035;-54
2023/02/22 06:01:55;;;;;;;15.93;14.25;;;27.20;76.70;;;;;;5083474;28;20099;-52
2023/02/22 06:04:22;;;;;;;15.98;14.15;;;27.20;76.80;;;;;;5083496;28;20216;-54
2023/02/22 06:06:48;;;;;;;15.32;13.63;;;27.20;76.90;;;;;;5083224;28;20025;-61
2023/02/22 06:09:15;;;;;;;16.27;14.68;;;27.20;76.90;;;;;;5083626;28;20051;-56
2023/02/22 06:11:41;;;;;;;16.00;14.30;;;27.20;76.90;;;;;;5083102;28;20024;-54
2023/02/22 06:14:08;;;;;;;17.25;14.73;;;27.20;77.00;;;;;;5083296;28;20036;-53
2023/02/22 06:16:34;;;;;;;15.63;14.07;;;27.20;77.10;;;;;;5083380;28;20024;-56
2023/02/22 06:19:01;;;;;;;14.88;13.48;;;27.20;77.20;;;;;;5083479;28;20040;-53
2023/02/22 06:21:28;;;;;;;16.33;14.73;;;27.20;77.10;;;;;;5083200;28;20029;-55
2023/02/22 06:23:55;;;;;;;16.40;14.90;;;27.20;77.10;;;;;;5084009;28;20039;-55
2023/02/22 06:26:21;;;;;;;16.20;14.60;;;27.20;77.00;;;;;;5083057;28;20052;-59
2023/02/22 06:28:48;;;;;;;17.15;15.38;;;27.20;77.00;;;;;;5086566;28;20301;-52
2023/02/22 06:31:15;;;;;;;16.73;15.07;;;27.10;76.80;;;;;;5073888;28;20079;-57
2023/02/22 06:33:41;;;;;;;17.25;15.43;;;27.10;76.80;;;;;;5067336;28;20205;-56
2023/02/22 06:36:09;;;;;;;16.85;15.05;;;27.10;76.80;;;;;;5066873;28;20321;-56
2023/02/22 06:38:35;;;;;;;16.90;14.55;;;27.10;76.80;;;;;;5086426;28;20575;-57
2023/02/22 06:41:02;;;;;;;15.77;14.27;;;27.00;76.80;;;;;;5086948;28;20051;-51
2023/02/22 06:43:28;;;;;;;15.88;14.27;;;27.00;76.70;;;;;;5087175;28;20032;-56
2023/02/22 06:45:55;;;;;;;16.92;15.23;;;27.00;76.80;;;;;;5086814;28;20036;-59
2023/02/22 06:48:22;;;;;;;15.07;13.65;;;27.00;76.70;;;;;;5084054;28;20020;-54
2023/02/22 06:50:48;;;;;;;15.45;13.88;;;27.00;76.90;;;;;;5075364;28;20037;-50
2023/02/22 06:53:15;;;;;;;15.10;13.60;;;27.00;76.80;;;;;;5066738;28;20021;-54
2023/02/22 06:55:41;;;;;;;15.93;14.32;;;27.00;76.90;;;;;;5066888;28;20029;-50
2023/02/22 06:58:08;;;;;;;15.43;13.98;;;27.00;76.90;;;;;;5077850;28;20028;-57
2023/02/22 07:00:34;;;;;;;15.88;14.27;;;27.00;77.00;;;;;;5066290;28;20056;-55
2023/02/22 07:03:03;;;;;;;16.40;14.80;;;26.90;77.10;;;;;;5069814;28;20209;-55
2023/02/22 07:05:30;;;;;;;16.00;14.50;;;26.90;77.10;;;;;;5073286;28;20036;-59
2023/02/22 07:08:03;;;;;;;17.38;14.27;;;26.90;77.30;;;;;;5066344;28;20037;-53
2023/02/22 07:10:32;;;;;;;16.58;14.98;;;26.90;77.10;;;;;;5066223;28;20032;-50
2023/02/22 07:12:59;;;;;;;16.02;14.32;;;26.90;77.20;;;;;;5065940;28;20061;-54
2023/02/22 07:15:27;;;;;;;15.30;13.73;;;26.90;77.20;;;;;;5066102;28;20033;-56
2023/02/22 07:17:54;;;;;;;16.77;15.00;;;26.90;77.30;;;;;;5066424;28;20095;-53
2023/02/22 07:20:23;;;;;;;15.02;13.40;;;26.90;77.60;;;;;;5066033;28;20040;-54
2023/02/22 07:22:50;;;;;;;16.10;14.43;;;26.90;77.60;;;;;;5066260;28;20037;-58
2023/02/22 07:25:17;;;;;;;15.07;13.68;;;26.90;77.70;;;;;;5065912;28;20092;-56
2023/02/22 07:27:44;;;;;;;15.25;13.60;;;26.90;77.90;;;;;;5065938;28;20109;-56
2023/02/22 07:30:17;;;;;;;15.90;14.32;;;26.90;78.00;;;;;;5066006;28;20025;-54
2023/02/22 07:32:44;;;;;;;15.07;13.52;;;26.80;78.00;;;;;;5048096;28;20037;-53
2023/02/22 07:35:19;;;;;;;15.65;14.05;;;26.80;78.10;;;;;;5065334;28;20110;-55
2023/02/22 07:37:46;;;;;;;14.80;13.35;;;26.90;77.90;;;;;;5065718;28;20317;-54
2023/02/22 07:40:14;;;;;;;16.25;14.00;;;26.80;77.70;;;;;;5065782;28;20027;-55
2023/02/22 07:42:53;;;;;;;14.68;13.32;;;26.90;77.70;;;;;;5065679;28;20041;-54
2023/02/22 07:45:20;;;;;;;15.35;13.35;;;26.80;77.50;;;;;;5065568;28;20032;-56
2023/02/22 07:47:47;;;;;;;16.50;13.80;;;26.90;77.60;;;;;;5065497;28;20029;-57
2023/02/22 07:50:16;;;;;;;15.23;13.73;;;26.90;77.60;;;;;;5065444;28;20021;-57
2023/02/22 07:52:52;;;;;;;14.65;13.25;;;26.80;77.50;;;;;;5065743;28;20023;-55
2023/02/22 07:55:21;;;;;;;14.15;12.88;;;26.80;77.60;;;;;;5065227;28;20068;-51
2023/02/22 07:57:50;;;;;;;14.63;13.27;;;26.80;77.70;;;;;;5065546;28;20048;-56
2023/02/22 08:00:25;;;;;;;14.60;12.85;;;26.90;77.90;;;;;;5065170;28;20131;-54
2023/02/22 08:02:52;;;;;;;14.52;13.02;;;26.80;77.80;;;;;;5065296;28;20053;-55
2023/02/22 08:05:20;;;;;;;14.65;13.15;;;26.80;77.90;;;;;;5065193;28;20025;-58
2023/02/22 08:07:47;;;;;;;14.25;12.95;;;26.80;77.90;;;;;;5065133;28;20029;-55
2023/02/22 08:10:14;;;;;;;15.00;13.48;;;26.80;78.00;;;;;;5065005;28;20055;-56
2023/02/22 08:12:41;;;;;;;14.70;13.20;;;26.80;78.10;;;;;;5064697;28;20055;-55
2023/02/22 08:15:16;;;;;;;14.57;13.18;;;26.80;78.10;;;;;;5064836;28;20033;-58
2023/02/22 08:17:42;;;;;;;14.18;12.68;;;26.80;78.10;;;;;;5065020;28;20324;-54
2023/02/22 08:20:09;;;;;;;14.73;13.27;;;26.80;78.10;;;;;;5064877;28;20229;-58
2023/02/22 08:22:36;;;;;;;14.95;13.45;;;26.70;78.20;;;;;;5064900;28;20033;-58
2023/02/22 08:25:02;;;;;;;14.27;12.98;;;26.80;78.30;;;;;;5065010;28;20020;-57
2023/02/22 08:27:30;;;;;;;14.13;12.77;;;26.70;78.20;;;;;;5064813;28;20198;-53
2023/02/22 08:29:57;;;;;;;14.68;13.25;;;26.80;78.20;;;;;;5064466;28;20317;-60
2023/02/22 08:32:23;;;;;;;14.80;13.32;;;26.70;77.80;;;;;;5064746;28;20033;-56
2023/02/22 08:34:51;;;;;;;14.73;13.35;;;26.80;77.80;;;;;;5064621;28;20080;-54
2023/02/22 08:37:18;;;;;;;17.30;13.85;;;26.70;77.60;;;;;;5064569;28;20028;-53
2023/02/22 08:39:45;;;;;;;15.05;13.55;;;26.70;77.50;;;;;;5064532;28;20033;-60
2023/02/22 08:42:11;;;;;;;14.02;12.73;;;26.80;77.70;;;;;;5064591;28;20027;-61
2023/02/22 08:44:39;;;;;;;15.50;14.00;;;26.70;77.60;;;;;;5064192;28;20033;-57
2023/02/22 08:47:06;;;;;;;14.07;12.65;;;26.70;77.70;;;;;;5064526;28;20047;-54
2023/02/22 08:49:33;;;;;;;14.60;13.20;;;26.80;77.80;;;;;;5064488;28;20039;-50
2023/02/22 08:52:00;;;;;;;14.73;13.27;;;26.80;77.70;;;;;;5064188;28;20309;-55
2023/02/22 08:54:26;;;;;;;14.80;13.40;;;26.80;77.70;;;;;;5064591;28;20028;-56
2023/02/22 08:56:53;;;;;;;15.07;13.65;;;26.80;77.80;;;;;;5064175;28;20055;-55
2023/02/22 08:59:19;;;;;;;14.27;12.90;;;26.80;77.80;;;;;;5063995;28;20277;-51
2023/02/22 09:01:46;;;;;;;15.40;13.80;;;26.70;77.70;;;;;;5063995;28;20025;-54
2023/02/22 09:04:12;;;;;;;14.40;13.00;;;26.70;77.60;;;;;;5064266;28;20032;-56
2023/02/22 09:06:47;;;;;;;15.10;13.70;;;26.70;77.80;;;;;;5063799;28;20024;-56
2023/02/22 09:09:13;;;;;;;14.50;13.13;;;26.70;77.90;;;;;;5063969;28;20313;-55
2023/02/22 09:11:40;;;;;;;15.20;13.65;;;26.70;78.10;;;;;;5063703;28;20028;-59
2023/02/22 09:14:06;;;;;;;15.57;13.35;;;26.70;78.70;;;;;;5063859;28;20229;-56
2023/02/22 09:16:33;;;;;;;14.45;13.00;;;26.70;78.10;;;;;;5064068;28;20064;-55
2023/02/22 09:18:59;;;;;;;14.75;13.07;;;26.70;78.20;;;;;;5064017;28;20041;-62
2023/02/22 09:21:26;;;;;;;14.43;13.02;;;26.70;78.10;;;;;;5063671;28;20088;-55
2023/02/22 09:23:53;;;;;;;14.52;13.02;;;26.70;78.10;;;;;;5064288;28;20198;-57
2023/02/22 09:26:22;;;;;;;14.25;12.77;;;26.70;78.10;;;;;;5063698;28;20043;-58
2023/02/22 09:28:49;;;;;;;14.85;13.45;;;26.70;78.10;;;;;;5064047;28;20071;-55
2023/02/22 09:31:16;;;;;;;14.45;12.88;;;26.70;78.10;;;;;;5063657;28;20105;-57
2023/02/22 09:33:43;;;;;;;14.43;12.93;;;26.70;78.00;;;;;;5064243;28;20055;-55
2023/02/22 09:36:10;;;;;;;14.10;12.73;;;26.70;78.10;;;;;;5063520;28;20032;-58
2023/02/22 09:38:36;;;;;;;16.58;13.32;;;26.70;78.00;;;;;;5064163;28;20099;-56
2023/02/22 09:41:19;;;;;;;15.20;12.63;;;26.70;78.00;;;;;;5063651;28;20040;-57
2023/02/22 09:43:53;;;;;;;14.38;13.02;;;26.70;78.10;;;;;;5063379;28;20099;-61
2023/02/22 09:46:36;;;;;;;15.35;13.68;;;26.70;78.10;;;;;;5063605;28;20037;-55
2023/02/22 09:49:12;;;;;;;14.27;12.88;;;26.70;78.00;;;;;;5063436;28;20040;-59
2023/02/22 09:51:51;;;;;;;14.80;13.25;;;26.70;77.90;;;;;;5063443;28;20029;-56
2023/02/22 09:54:51;;;;;;;15.32;13.68;;;26.70;78.00;;;;;;5063460;28;20033;-56
2023/02/22 09:57:30;;;;;;;14.73;13.23;;;26.70;78.00;;;;;;5063121;28;20053;-56
2023/02/22 10:00:12;;;;;;;14.98;13.38;;;26.70;77.90;;;;;;5065846;28;20035;-53
2023/02/22 10:02:59;;;;;;;14.15;12.85;;;26.70;78.00;;;;;;5067351;28;20029;-56
2023/02/22 10:05:40;;;;;;;17.88;13.40;;;26.70;77.70;;;;;;5027126;28;20094;-55
2023/02/22 10:08:17;;;;;;;15.77;13.30;;;26.70;78.10;;;;;;5067605;28;20332;-59
2023/02/22 10:10:51;;;;;;;17.88;13.90;;;26.70;78.20;;;;;;5067254;28;20032;-54
2023/02/22 10:13:26;;;;;;;18.77;14.30;;;26.70;78.10;;;;;;5067112;28;20053;-58
2023/02/22 10:16:03;;;;;;;18.52;13.75;;;26.70;78.00;;;;;;5067066;28;20074;-55
2023/02/22 10:18:39;;;;;;;18.40;13.68;;;26.70;78.10;;;;;;5067368;28;20206;-52
2023/02/22 10:21:38;;;;;;;16.35;13.43;;;26.60;78.20;;;;;;5067371;28;20060;-56
2023/02/22 10:24:22;;;;;;;17.33;13.27;;;26.60;78.50;;;;;;5072920;28;20103;-58
2023/02/22 10:26:50;;;;;;;16.70;13.32;;;26.60;78.60;;;;;;5067264;28;20041;-58
2023/02/22 10:29:26;;;;;;;17.77;13.82;;;26.60;78.70;;;;;;5061870;28;20036;-56
2023/02/22 10:32:02;;;;;;;15.18;13.68;;;26.60;78.70;;;;;;5066185;28;20325;-60
2023/02/22 10:34:43;;;;;;;16.80;13.90;;;26.60;78.90;;;;;;5065194;28;20032;-59
2023/02/22 10:37:25;;;;;;;16.83;13.65;;;26.60;78.90;;;;;;5065598;28;20209;-57
2023/02/22 10:40:12;;;;;;;15.80;13.38;;;26.60;79.00;;;;;;5065755;28;20048;-56
2023/02/22 10:42:38;;;;;;;14.68;13.13;;;26.60;79.00;;;;;;5066557;28;20371;-57
2023/02/22 10:45:19;;;;;;;14.93;13.43;;;26.60;79.00;;;;;;5066952;28;20098;-57
2023/02/22 10:47:46;;;;;;;17.65;13.27;;;26.60;79.00;;;;;;5066586;28;20235;-57
2023/02/22 10:50:14;;;;;;;17.13;13.02;;;26.60;79.10;;;;;;5066860;28;20091;-58
2023/02/22 10:52:40;;;;;;;22.48;13.65;;;26.60;79.10;;;;;;5066777;28;20024;-58
2023/02/22 10:55:13;;;;;;;18.52;13.85;;;26.60;79.10;;;;;;5066401;28;20037;-55
2023/02/22 10:57:41;;;;;;;16.00;13.45;;;26.60;79.10;;;;;;5066644;28;20033;-58
2023/02/22 11:00:30;;;;;;;19.60;13.82;;;26.60;79.10;;;;;;5066445;28;20389;-55
2023/02/22 11:02:59;;;;;;;20.00;13.43;;;26.60;79.20;;;;;;5068211;28;20029;-55
2023/02/22 11:05:30;;;;;;;17.90;13.88;;;26.60;79.20;;;;;;5086268;28;20059;-54
2023/02/22 11:08:18;;;;;;;18.63;13.45;;;26.60;79.10;;;;;;5081905;28;20100;-54
2023/02/22 11:10:46;;;;;;;22.42;14.50;;;26.60;79.20;;;;;;5077059;28;20024;-55
2023/02/22 11:13:37;;;;;;;17.27;14.32;;;26.60;79.20;;;;;;5072892;28;20321;-53
2023/02/22 11:16:25;;;;;;;25.45;14.65;;;26.50;79.10;;;;;;5082591;28;20254;-54
2023/02/22 11:19:00;;;;;;;21.42;13.32;;;26.60;78.90;;;;;;5086652;28;20051;-55
2023/02/22 11:21:30;;;;;;;22.65;14.60;;;26.60;78.90;;;;;;5085954;28;20035;-62
2023/02/22 11:24:09;;;;;;;20.13;13.52;;;26.60;79.00;;;;;;5086050;28;20031;-62
2023/02/22 11:26:44;;;;;;;19.00;14.25;;;26.60;78.70;;;;;;5085923;28;20028;-59
2023/02/22 11:29:18;;;;;;;21.23;13.32;;;26.60;78.70;;;;;;5086277;28;20029;-59
2023/02/22 11:31:48;;;;;;;16.10;13.15;;;26.60;78.70;;;;;;5085188;28;20032;-59
2023/02/22 11:34:35;;;;;;;18.88;11.98;;;26.60;78.50;;;;;;5079993;28;20232;-58
2023/02/22 11:37:35;;;;;;;19.10;13.02;;;26.60;78.60;;;;;;5074772;28;20092;-58
2023/02/22 11:40:21;;;;;;;17.42;13.50;;;26.60;78.90;;;;;;5078270;28;20024;-54
2023/02/22 11:43:04;;;;;;;17.92;12.45;;;26.60;78.90;;;;;;5085312;28;20040;-56
2023/02/22 11:45:31;;;;;;;18.00;12.82;;;26.60;78.90;;;;;;5084743;28;20036;-60
2023/02/22 11:48:00;;;;;;;20.75;12.82;;;26.60;78.90;;;;;;5085530;28;20196;-60
2023/02/22 11:51:03;;;;;;;20.17;12.90;;;26.60;78.90;;;;;;5085527;28;20092;-56
2023/02/22 11:53:51;;;;;;;17.42;13.05;;;26.60;79.00;;;;;;5086003;28;20355;-59
2023/02/22 11:56:31;;;;;;;16.42;13.25;;;26.60;79.00;;;;;;5085420;28;20029;-60
2023/02/22 11:59:36;;;;;;;14.45;12.02;;;26.60;79.10;;;;;;5085582;28;20037;-63
2023/02/22 12:02:41;;;;;;;15.27;12.48;;;26.60;79.10;;;;;;5085267;28;20024;-63
2023/02/22 12:05:07;;;;;;;15.98;13.23;;;26.60;79.20;;;;;;5072495;28;20081;-57
2023/02/22 12:08:07;;;;;;;17.17;13.73;;;26.60;79.40;;;;;;5067303;28;20032;-56
2023/02/22 12:10:54;;;;;;;17.13;12.68;;;26.60;79.30;;;;;;5085063;28;20039;-54
2023/02/22 12:13:36;;;;;;;20.05;13.85;;;26.60;79.30;;;;;;5085006;28;20108;-56
2023/02/22 12:16:23;;;;;;;21.70;14.32;;;26.60;79.20;;;;;;5085067;28;20063;-61
2023/02/22 12:19:20;;;;;;;17.25;13.55;;;26.60;79.00;;;;;;5085490;28;20066;-56
2023/02/22 12:21:54;;;;;;;22.55;15.35;;;26.60;79.00;;;;;;5072289;28;20041;-55
2023/02/22 12:24:46;;;;;;;23.83;15.90;;;26.50;78.90;;;;;;5084891;28;20091;-60
2023/02/22 12:27:51;;;;;;;21.70;16.65;;;26.60;78.50;;;;;;5084736;28;20028;-55
2023/02/22 12:30:29;;;;;;;21.00;17.02;;;26.60;78.00;;;;;;5030031;28;20052;-60
2023/02/22 12:33:02;;;;;;;24.55;17.98;;;26.60;77.40;;;;;;5085121;28;20028;-57
2023/02/22 12:35:37;;;;;;;22.50;16.85;;;26.50;77.90;;;;;;5084775;28;20028;-54
2023/02/22 12:38:12;;;;;;;25.50;16.77;;;26.60;77.30;;;;;;5085026;28;20032;-53
2023/02/22 12:40:52;;;;;;;22.63;16.67;;;26.60;76.80;;;;;;5084915;28;20040;-53
2023/02/22 12:43:31;;;;;;;22.63;17.08;;;26.50;76.60;;;;;;5084657;28;20035;-57
2023/02/22 12:46:20;;;;;;;24.30;17.33;;;26.50;76.80;;;;;;5084271;28;20201;-53
2023/02/22 12:49:24;;;;;;;25.33;18.38;;;26.50;76.90;;;;;;5084772;28;20051;-56
2023/02/22 12:52:18;;;;;;;26.10;18.85;;;26.60;77.20;;;;;;5081836;28;20048;-54
2023/02/22 12:54:55;;;;;;;25.00;17.88;;;26.60;77.40;;;;;;5083131;28;20031;-54
2023/02/22 12:57:58;;;;;;;25.10;17.25;;;26.60;77.30;;;;;;5084352;28;20024;-55